Time;durP1;ratioP1;P1;durP2;ratioP2;P2;SDS_P1;SDS_P2;PMS_P1;PMS_P2;Temp;Humidity;BMP_temperature;BMP_pressure;BME280_temperature;BME280_humidity;BME280_pressure;Samples;Min_cycle;Max_cycle;Signal;HPM_P1;HPM_P2
2022/10/19 00:01:07;;;;;;;2.75;1.25;;;10.10;99.90;;;;;;5011596;28;19917;-79
2022/10/19 00:03:34;;;;;;;3.03;1.02;;;10.10;99.90;;;;;;5029383;28;20492;-77
2022/10/19 00:06:08;;;;;;;1.83;1.13;;;10.10;99.90;;;;;;5011395;28;20042;-78
2022/10/19 00:08:34;;;;;;;6.05;1.65;;;10.10;99.90;;;;;;5011640;28;20049;-77
2022/10/19 00:11:00;;;;;;;1.83;1.20;;;10.20;99.90;;;;;;5029570;28;20102;-81
2022/10/19 00:13:25;;;;;;;1.55;1.10;;;10.20;99.90;;;;;;5028687;28;20056;-78
2022/10/19 00:15:51;;;;;;;1.65;1.48;;;10.20;99.90;;;;;;5029052;28;20041;-77
2022/10/19 00:18:17;;;;;;;1.15;1.05;;;10.20;99.90;;;;;;5028953;28;20045;-77
2022/10/19 00:20:42;;;;;;;0.95;0.73;;;10.20;99.90;;;;;;5029172;28;20034;-78
2022/10/19 00:23:08;;;;;;;2.70;1.38;;;10.20;99.90;;;;;;5028687;28;20151;-77
2022/10/19 00:25:33;;;;;;;1.13;1.02;;;10.20;99.90;;;;;;5011200;28;20045;-77
2022/10/19 00:27:59;;;;;;;1.38;1.00;;;10.20;99.90;;;;;;5029127;28;20041;-78
2022/10/19 00:30:25;;;;;;;2.20;0.80;;;10.20;99.90;;;;;;5010851;28;20423;-77
2022/10/19 00:32:50;;;;;;;4.47;1.33;;;10.30;99.90;;;;;;5029076;28;20084;-77
2022/10/19 00:35:16;;;;;;;1.27;0.90;;;10.30;99.90;;;;;;5010793;28;20500;-78
2022/10/19 00:37:42;;;;;;;1.35;1.25;;;10.30;99.90;;;;;;5029171;28;20049;-77
2022/10/19 00:40:08;;;;;;;3.45;1.60;;;10.30;99.90;;;;;;5028459;28;20076;-77
2022/10/19 00:42:33;;;;;;;1.70;1.15;;;10.30;99.90;;;;;;5011344;28;20128;-78
2022/10/19 00:45:03;;;;;;;2.33;1.40;;;10.30;99.90;;;;;;5010427;28;20129;-77
2022/10/19 00:47:30;;;;;;;2.25;1.60;;;10.30;99.90;;;;;;5011193;28;20411;-77
2022/10/19 00:49:57;;;;;;;5.53;1.30;;;10.40;99.90;;;;;;5028418;28;20042;-78
2022/10/19 00:52:25;;;;;;;1.65;1.55;;;10.40;99.90;;;;;;5010605;28;20041;-77
2022/10/19 00:54:52;;;;;;;1.10;1.05;;;10.40;99.90;;;;;;5010908;28;20057;-77
2022/10/19 00:57:19;;;;;;;2.00;1.55;;;10.40;99.90;;;;;;5010441;28;20046;-77
2022/10/19 00:59:45;;;;;;;3.17;1.52;;;10.40;99.90;;;;;;5010008;28;20045;-77
2022/10/19 01:02:11;;;;;;;4.25;1.60;;;10.50;99.90;;;;;;5010469;28;20067;-78
2022/10/19 01:04:41;;;;;;;5.50;1.83;;;10.50;99.90;;;;;;4978271;28;20442;-76
2022/10/19 01:07:07;;;;;;;2.97;1.20;;;10.50;99.90;;;;;;5028578;28;20080;-77
2022/10/19 01:09:33;;;;;;;1.77;1.23;;;10.50;99.90;;;;;;5028439;28;20041;-77
2022/10/19 01:12:04;;;;;;;3.10;1.40;;;10.50;99.90;;;;;;5028900;28;20033;-77
2022/10/19 01:14:40;;;;;;;4.20;2.25;;;10.50;99.90;;;;;;5009564;28;20056;-78
2022/10/19 01:17:34;;;;;;;2.38;1.15;;;10.60;99.90;;;;;;5027918;28;20052;-76
2022/10/19 01:20:21;;;;;;;1.98;0.85;;;10.60;99.90;;;;;;5010303;28;20107;-79
2022/10/19 01:23:07;;;;;;;0.98;0.68;;;10.60;99.90;;;;;;5028122;28;20045;-78
2022/10/19 01:25:52;;;;;;;2.30;1.20;;;10.60;99.90;;;;;;5028336;28;20136;-79
2022/10/19 01:29:03;;;;;;;3.05;1.10;;;10.60;99.90;;;;;;5027286;28;20064;-77
2022/10/19 01:31:53;;;;;;;1.77;1.48;;;10.60;99.90;;;;;;5028246;28;20088;-77
2022/10/19 01:34:46;;;;;;;8.90;2.30;;;10.70;99.90;;;;;;5027786;28;20049;-77
2022/10/19 01:37:32;;;;;;;4.60;1.17;;;10.70;99.90;;;;;;5009798;28;20056;-77
2022/10/19 01:40:13;;;;;;;2.85;1.38;;;10.70;99.90;;;;;;5028221;28;20412;-77
2022/10/19 01:43:03;;;;;;;2.63;1.42;;;10.70;99.90;;;;;;5028163;28;20041;-77
2022/10/19 01:45:50;;;;;;;4.22;1.63;;;10.70;99.90;;;;;;5028296;28;20050;-77
2022/10/19 01:48:33;;;;;;;2.35;1.63;;;10.80;99.90;;;;;;5027223;28;20049;-77
2022/10/19 01:51:06;;;;;;;1.95;1.08;;;10.80;99.90;;;;;;5028033;28;20081;-77
2022/10/19 01:53:38;;;;;;;1.58;1.23;;;10.80;99.90;;;;;;5009951;28;20140;-78
2022/10/19 01:56:05;;;;;;;3.17;1.50;;;10.80;99.90;;;;;;5027304;28;20377;-77
2022/10/19 01:58:34;;;;;;;2.40;1.40;;;10.80;99.90;;;;;;5026590;28;20119;-77
2022/10/19 02:01:03;;;;;;;5.63;1.65;;;10.80;99.90;;;;;;5026642;28;20400;-79
2022/10/19 02:03:30;;;;;;;3.97;2.72;;;10.80;99.90;;;;;;5027763;28;20049;-77
2022/10/19 02:05:57;;;;;;;4.13;1.60;;;10.80;99.90;;;;;;5010035;28;20049;-79
2022/10/19 02:08:30;;;;;;;2.55;0.90;;;10.80;99.90;;;;;;5009519;28;20045;-77
2022/10/19 02:10:58;;;;;;;4.88;1.20;;;10.90;99.90;;;;;;5027799;28;20049;-77
2022/10/19 02:13:25;;;;;;;2.90;1.02;;;10.80;99.90;;;;;;5026008;28;20072;-77
2022/10/19 02:15:53;;;;;;;4.38;1.85;;;10.80;99.90;;;;;;5027243;28;20045;-78
2022/10/19 02:18:25;;;;;;;8.13;1.27;;;10.80;99.90;;;;;;5026633;28;20495;-77
2022/10/19 02:20:51;;;;;;;3.63;1.63;;;10.80;99.90;;;;;;5027254;28;20041;-78
2022/10/19 02:23:19;;;;;;;2.13;1.08;;;10.80;99.90;;;;;;5009246;28;20575;-77
2022/10/19 02:25:45;;;;;;;3.85;1.27;;;10.80;99.90;;;;;;5026666;28;20042;-77
2022/10/19 02:28:10;;;;;;;2.55;1.25;;;10.80;99.90;;;;;;5008142;28;20084;-78
2022/10/19 02:30:36;;;;;;;3.80;1.52;;;10.80;99.90;;;;;;5027088;28;20049;-77
2022/10/19 02:33:02;;;;;;;4.22;1.33;;;10.80;99.90;;;;;;5026579;28;20041;-77
2022/10/19 02:35:28;;;;;;;1.25;0.95;;;10.80;99.90;;;;;;5027125;28;20088;-77
2022/10/19 02:37:58;;;;;;;1.85;1.13;;;10.80;99.90;;;;;;5026827;28;20041;-77
2022/10/19 02:40:26;;;;;;;2.92;1.48;;;10.80;99.90;;;;;;5026262;28;20037;-77
2022/10/19 02:42:56;;;;;;;1.95;1.40;;;10.80;99.90;;;;;;5008427;28;20053;-77
2022/10/19 02:45:31;;;;;;;1.38;1.15;;;10.80;99.90;;;;;;5026277;28;20099;-77
2022/10/19 02:48:11;;;;;;;2.70;1.52;;;10.80;99.90;;;;;;5027103;28;20103;-79
2022/10/19 02:50:37;;;;;;;7.28;1.05;;;10.80;99.90;;;;;;5008774;28;20053;-78
2022/10/19 02:53:02;;;;;;;1.55;1.08;;;10.80;99.90;;;;;;5026561;28;20442;-78
2022/10/19 02:55:29;;;;;;;7.38;1.95;;;10.80;99.90;;;;;;5026945;28;20033;-77
2022/10/19 02:57:56;;;;;;;3.88;1.77;;;10.80;99.90;;;;;;5008437;28;20037;-77
2022/10/19 03:00:21;;;;;;;7.03;1.85;;;10.80;99.90;;;;;;5025949;28;20508;-77
2022/10/19 03:02:47;;;;;;;3.03;0.93;;;10.80;99.90;;;;;;5026606;28;20060;-77
2022/10/19 03:05:13;;;;;;;1.17;0.82;;;10.80;99.90;;;;;;5025759;28;20045;-77
2022/10/19 03:07:38;;;;;;;4.45;1.48;;;10.80;99.90;;;;;;5026320;28;20049;-78
2022/10/19 03:10:04;;;;;;;4.78;1.30;;;10.80;99.90;;;;;;5026279;28;20520;-77
2022/10/19 03:12:30;;;;;;;7.28;1.80;;;10.80;99.90;;;;;;5027396;28;20500;-79
2022/10/19 03:14:55;;;;;;;2.95;1.20;;;10.80;99.90;;;;;;5030086;28;20095;-77
2022/10/19 03:17:21;;;;;;;7.38;1.05;;;10.80;99.90;;;;;;5030030;28;20049;-77
2022/10/19 03:19:46;;;;;;;3.03;1.83;;;10.80;99.90;;;;;;5030507;28;20063;-77
2022/10/19 03:22:13;;;;;;;4.13;1.30;;;10.80;99.90;;;;;;5030347;28;20510;-78
2022/10/19 03:24:39;;;;;;;1.70;1.17;;;10.80;99.90;;;;;;5012355;28;20046;-77
2022/10/19 03:27:04;;;;;;;5.85;1.70;;;10.70;99.90;;;;;;5029828;28;20045;-77
2022/10/19 03:29:30;;;;;;;3.22;1.55;;;10.70;99.90;;;;;;5029294;28;20041;-78
2022/10/19 03:31:56;;;;;;;9.50;2.50;;;10.70;99.90;;;;;;5030438;28;20111;-77
2022/10/19 03:34:21;;;;;;;4.18;1.42;;;10.70;99.90;;;;;;5012233;28;20049;-77
2022/10/19 03:36:47;;;;;;;3.83;1.20;;;10.60;99.90;;;;;;5029819;28;20128;-77
2022/10/19 03:39:14;;;;;;;2.55;1.60;;;10.70;99.90;;;;;;5029962;28;20081;-77
2022/10/19 03:41:41;;;;;;;2.55;1.30;;;10.60;99.90;;;;;;5012020;28;20045;-77
2022/10/19 03:44:08;;;;;;;3.53;1.17;;;10.70;99.90;;;;;;5011060;28;20439;-77
2022/10/19 03:46:34;;;;;;;9.73;1.35;;;10.70;99.90;;;;;;5029974;28;20045;-77
2022/10/19 03:49:00;;;;;;;4.95;1.35;;;10.70;99.90;;;;;;5029446;28;20045;-78
2022/10/19 03:51:28;;;;;;;4.20;1.25;;;10.70;99.90;;;;;;5029810;28;20104;-77
2022/10/19 03:53:56;;;;;;;2.28;0.90;;;10.70;99.90;;;;;;5029609;28;20043;-77
2022/10/19 03:56:24;;;;;;;2.53;1.50;;;10.70;99.90;;;;;;5011737;28;20068;-77
2022/10/19 03:58:50;;;;;;;1.58;1.05;;;10.70;99.90;;;;;;5028869;28;20100;-77
2022/10/19 04:01:19;;;;;;;4.75;1.63;;;10.70;99.90;;;;;;5012042;28;20092;-78
2022/10/19 04:03:45;;;;;;;4.90;1.85;;;10.70;99.90;;;;;;5011952;28;20057;-77
2022/10/19 04:06:16;;;;;;;2.47;1.33;;;10.70;99.90;;;;;;5029259;28;20048;-77
2022/10/19 04:08:43;;;;;;;17.67;2.67;;;10.70;99.90;;;;;;5029863;28;20041;-77
2022/10/19 04:11:12;;;;;;;5.35;1.27;;;10.80;99.90;;;;;;5011692;28;20381;-77
2022/10/19 04:13:38;;;;;;;2.22;1.38;;;10.80;99.90;;;;;;5028749;28;20120;-77
2022/10/19 04:16:05;;;;;;;5.32;1.67;;;10.80;99.90;;;;;;5029340;28;20167;-77
2022/10/19 04:18:30;;;;;;;2.35;1.38;;;10.80;99.90;;;;;;5029319;28;20396;-78
2022/10/19 04:21:03;;;;;;;4.25;1.70;;;10.70;99.90;;;;;;5011981;28;20041;-77
2022/10/19 04:23:30;;;;;;;;;;;10.70;99.90;;;;;;5012517;28;20087;-77
2022/10/19 04:26:03;;;;;;;12.40;2.92;;;10.70;99.90;;;;;;5029432;28;19929;-77
2022/10/19 04:28:29;;;;;;;3.40;1.77;;;10.70;99.90;;;;;;5011256;28;20049;-77
2022/10/19 04:30:55;;;;;;;5.93;2.67;;;10.70;99.90;;;;;;5011615;28;20179;-78
2022/10/19 04:33:20;;;;;;;6.07;1.95;;;10.70;99.90;;;;;;5028965;28;20045;-77
2022/10/19 04:35:46;;;;;;;4.43;2.35;;;10.60;99.90;;;;;;5028860;28;20500;-77
2022/10/19 04:38:11;;;;;;;3.35;1.65;;;10.60;99.90;;;;;;5028860;28;20451;-77
2022/10/19 04:40:37;;;;;;;4.30;2.08;;;10.60;99.90;;;;;;5029065;28;20038;-77
2022/10/19 04:43:04;;;;;;;4.70;2.10;;;10.60;99.90;;;;;;5027602;28;20072;-77
2022/10/19 04:45:30;;;;;;;3.85;2.00;;;10.50;99.90;;;;;;5011291;28;20416;-79
2022/10/19 04:47:55;;;;;;;2.25;2.05;;;10.50;99.90;;;;;;5011299;28;20045;-77
2022/10/19 04:50:24;;;;;;;3.10;1.90;;;10.40;99.90;;;;;;5028331;28;20412;-79
2022/10/19 04:52:50;;;;;;;3.30;0.95;;;10.40;99.90;;;;;;5028522;28;20503;-77
2022/10/19 04:55:16;;;;;;;6.47;1.92;;;10.40;99.90;;;;;;5028084;28;20096;-77
2022/10/19 04:57:42;;;;;;;3.08;1.67;;;10.30;99.90;;;;;;4993654;28;20065;-77
2022/10/19 05:00:08;;;;;;;3.47;1.67;;;10.30;99.90;;;;;;5028433;28;20060;-77
2022/10/19 05:02:33;;;;;;;5.88;1.45;;;10.30;99.90;;;;;;5010736;28;20050;-77
2022/10/19 05:04:59;;;;;;;5.13;1.70;;;10.40;99.90;;;;;;5028953;28;20037;-78
2022/10/19 05:07:24;;;;;;;3.28;2.00;;;10.40;99.90;;;;;;5010504;28;20049;-77
2022/10/19 05:09:50;;;;;;;2.60;1.67;;;10.40;99.90;;;;;;5028451;28;20072;-77
2022/10/19 05:12:16;;;;;;;7.97;1.25;;;10.40;99.90;;;;;;5009517;28;20038;-77
2022/10/19 05:14:41;;;;;;;3.38;1.48;;;10.40;99.90;;;;;;5010384;28;20041;-77
2022/10/19 05:17:07;;;;;;;5.88;1.65;;;10.40;99.90;;;;;;5010187;28;20037;-77
2022/10/19 05:19:32;;;;;;;6.95;1.85;;;10.40;99.90;;;;;;5010824;28;20057;-77
2022/10/19 05:21:58;;;;;;;8.50;2.75;;;10.40;99.90;;;;;;5028513;28;20037;-77
2022/10/19 05:24:23;;;;;;;7.82;2.28;;;10.40;99.90;;;;;;5010178;28;20392;-77
2022/10/19 05:26:49;;;;;;;3.03;2.72;;;10.40;99.90;;;;;;5028049;28;20099;-77
2022/10/19 05:29:15;;;;;;;20.77;2.20;;;10.40;99.90;;;;;;5026952;28;20061;-77
2022/10/19 05:31:40;;;;;;;5.38;1.92;;;10.50;99.90;;;;;;5028012;28;20080;-77
2022/10/19 05:34:06;;;;;;;7.13;2.03;;;10.50;99.90;;;;;;5027729;28;20041;-77
2022/10/19 05:36:37;;;;;;;4.05;1.30;;;10.50;99.90;;;;;;5026637;28;20045;-77
2022/10/19 05:39:15;;;;;;;4.05;1.65;;;10.50;99.90;;;;;;5027488;28;20550;-77
2022/10/19 05:41:45;;;;;;;2.40;1.75;;;10.50;99.90;;;;;;5009857;28;20060;-78
2022/10/19 05:44:14;;;;;;;4.93;2.15;;;10.50;99.90;;;;;;5026534;28;20045;-77
2022/10/19 05:46:40;;;;;;;3.30;1.40;;;10.50;99.90;;;;;;5027525;28;20488;-77
2022/10/19 05:49:05;;;;;;;8.23;2.25;;;10.50;99.90;;;;;;5027594;28;20125;-77
2022/10/19 05:51:31;;;;;;;7.47;1.25;;;10.50;99.90;;;;;;5027221;28;20512;-78
2022/10/19 05:53:57;;;;;;;5.68;1.88;;;10.50;99.90;;;;;;5027753;28;20092;-77
2022/10/19 05:56:26;;;;;;;3.22;1.35;;;10.50;99.90;;;;;;5027229;28;20049;-77
2022/10/19 05:58:52;;;;;;;6.25;2.20;;;10.50;99.90;;;;;;5026504;28;20045;-77
2022/10/19 06:01:18;;;;;;;1.92;1.35;;;10.50;99.90;;;;;;5027315;28;20037;-77
2022/10/19 06:03:44;;;;;;;5.18;1.75;;;10.50;99.90;;;;;;5027543;28;20080;-77
2022/10/19 06:06:10;;;;;;;6.40;1.80;;;10.50;99.90;;;;;;5027113;28;20084;-77
2022/10/19 06:08:37;;;;;;;2.50;1.58;;;10.50;99.90;;;;;;5027083;28;20065;-77
2022/10/19 06:11:27;;;;;;;3.28;1.15;;;10.50;99.90;;;;;;5009163;28;20045;-79
2022/10/19 06:13:55;;;;;;;6.20;1.90;;;10.50;99.90;;;;;;5026243;28;20400;-78
2022/10/19 06:16:22;;;;;;;3.00;1.40;;;10.50;99.90;;;;;;5026980;28;20049;-77
2022/10/19 06:18:48;;;;;;;7.32;3.15;;;10.50;99.90;;;;;;5027018;28;20510;-77
2022/10/19 06:21:20;;;;;;;4.65;2.20;;;10.50;99.90;;;;;;5026708;28;20273;-77
2022/10/19 06:23:54;;;;;;;2.80;1.73;;;10.50;99.90;;;;;;5009108;28;20050;-78
2022/10/19 06:26:21;;;;;;;6.70;2.20;;;10.60;99.90;;;;;;5026814;28;20114;-77
2022/10/19 06:28:47;;;;;;;5.30;2.05;;;10.50;99.90;;;;;;5008144;28;20532;-77
2022/10/19 06:31:13;;;;;;;4.13;2.00;;;10.50;99.90;;;;;;5026368;28;20076;-77
2022/10/19 06:33:40;;;;;;;5.53;2.05;;;10.50;99.90;;;;;;5026751;28;20484;-77
2022/10/19 06:36:13;;;;;;;11.15;1.90;;;10.50;99.90;;;;;;5026270;28;20492;-77
2022/10/19 06:38:39;;;;;;;2.90;1.75;;;10.50;99.90;;;;;;5026620;28;20183;-77
2022/10/19 06:41:05;;;;;;;13.82;2.55;;;10.60;99.90;;;;;;5008785;28;20049;-79
2022/10/19 06:43:31;;;;;;;3.05;1.45;;;10.50;99.90;;;;;;5008234;28;20078;-77
2022/10/19 06:45:57;;;;;;;3.13;1.45;;;10.60;99.90;;;;;;5026860;28;20312;-77
2022/10/19 06:48:23;;;;;;;4.50;2.03;;;10.50;99.90;;;;;;5025792;28;20042;-77
2022/10/19 06:50:56;;;;;;;3.25;1.83;;;10.60;99.90;;;;;;5026270;28;20481;-77
2022/10/19 06:53:21;;;;;;;3.15;1.30;;;10.60;99.90;;;;;;5026071;28;20053;-77
2022/10/19 06:55:47;;;;;;;8.52;3.17;;;10.60;99.90;;;;;;5008214;28;20040;-76
2022/10/19 06:58:12;;;;;;;5.68;2.28;;;10.60;99.90;;;;;;5024823;28;20045;-78
2022/10/19 07:00:38;;;;;;;5.43;2.22;;;10.60;99.90;;;;;;5026273;28;20410;-77
2022/10/19 07:03:03;;;;;;;3.78;1.45;;;10.60;99.90;;;;;;5007751;28;20456;-77
2022/10/19 07:05:29;;;;;;;4.18;1.65;;;10.60;99.90;;;;;;5026138;28;20045;-78
2022/10/19 07:07:56;;;;;;;7.18;2.50;;;10.60;99.90;;;;;;5026299;28;20046;-77
2022/10/19 07:10:22;;;;;;;18.92;2.33;;;10.60;99.90;;;;;;5025369;28;20495;-77
2022/10/19 07:12:47;;;;;;;2.42;1.27;;;10.70;99.90;;;;;;5024785;28;20091;-77
2022/10/19 07:15:13;;;;;;;5.75;1.50;;;10.60;99.90;;;;;;5007681;28;20461;-77
2022/10/19 07:17:38;;;;;;;4.72;1.58;;;10.70;99.90;;;;;;5025916;28;20496;-78
2022/10/19 07:20:04;;;;;;;4.45;2.20;;;10.70;99.90;;;;;;5008106;28;20464;-77
2022/10/19 07:22:30;;;;;;;3.25;1.75;;;10.70;99.90;;;;;;5025386;28;20080;-77
2022/10/19 07:24:57;;;;;;;3.50;1.80;;;10.70;99.90;;;;;;5025440;28;20037;-78
2022/10/19 07:27:23;;;;;;;1.95;1.08;;;10.70;99.90;;;;;;5024403;28;20400;-78
2022/10/19 07:29:48;;;;;;;8.32;2.20;;;10.80;99.90;;;;;;5025164;28;20041;-77
2022/10/19 07:32:14;;;;;;;6.28;1.73;;;10.80;99.90;;;;;;5025306;28;20479;-76
2022/10/19 07:34:39;;;;;;;8.82;2.20;;;10.80;99.90;;;;;;5025184;28;20045;-77
2022/10/19 07:37:05;;;;;;;5.53;1.77;;;10.80;99.90;;;;;;5007382;28;20406;-76
2022/10/19 07:39:31;;;;;;;4.22;2.03;;;10.80;99.90;;;;;;5025175;28;20042;-77
2022/10/19 07:41:56;;;;;;;5.18;1.17;;;10.90;99.90;;;;;;5024431;28;20152;-76
2022/10/19 07:44:22;;;;;;;4.43;1.65;;;10.90;99.90;;;;;;5006752;28;20042;-77
2022/10/19 07:46:48;;;;;;;6.43;2.17;;;10.90;99.90;;;;;;5007040;28;20071;-77
2022/10/19 07:49:15;;;;;;;6.90;2.10;;;10.90;99.90;;;;;;5024692;28;20511;-76
2022/10/19 07:51:41;;;;;;;5.53;1.95;;;10.90;99.90;;;;;;5024710;28;20100;-77
2022/10/19 07:54:07;;;;;;;6.45;2.20;;;11.00;99.90;;;;;;5024729;28;20056;-77
2022/10/19 07:56:34;;;;;;;6.88;1.92;;;11.00;99.90;;;;;;5007085;28;20451;-76
2022/10/19 07:59:00;;;;;;;4.70;1.92;;;11.00;99.90;;;;;;5023922;28;20587;-79
2022/10/19 08:01:29;;;;;;;5.45;2.38;;;11.10;99.90;;;;;;5028963;28;20076;-78
2022/10/19 08:03:55;;;;;;;2.70;1.88;;;11.10;99.90;;;;;;5028629;28;20111;-77
2022/10/19 08:06:21;;;;;;;15.18;2.40;;;11.10;99.90;;;;;;5028046;28;20053;-77
2022/10/19 08:08:48;;;;;;;3.42;1.67;;;11.10;99.90;;;;;;5028194;28;20069;-77
2022/10/19 08:11:22;;;;;;;10.50;1.63;;;11.20;99.90;;;;;;5027852;28;20484;-78
2022/10/19 08:13:48;;;;;;;4.18;1.40;;;11.20;99.90;;;;;;5027305;28;20046;-77
2022/10/19 08:16:24;;;;;;;7.68;1.73;;;11.20;99.90;;;;;;5027693;28;20038;-77
2022/10/19 08:18:51;;;;;;;4.55;1.90;;;11.30;99.90;;;;;;5010545;28;20389;-76
2022/10/19 08:21:17;;;;;;;2.47;1.35;;;11.30;99.90;;;;;;5010124;28;20570;-77
2022/10/19 08:23:42;;;;;;;2.28;1.30;;;11.30;99.90;;;;;;5027804;28;20073;-77
2022/10/19 08:26:08;;;;;;;2.33;1.52;;;11.40;99.90;;;;;;5027191;28;20117;-76
2022/10/19 08:28:33;;;;;;;2.92;1.67;;;11.40;99.90;;;;;;5026951;28;20419;-78
2022/10/19 08:31:07;;;;;;;2.28;1.13;;;11.40;99.90;;;;;;5010895;28;20117;-77
2022/10/19 08:33:33;;;;;;;2.55;0.98;;;11.50;99.90;;;;;;5027823;28;20069;-77
2022/10/19 08:35:58;;;;;;;5.03;1.08;;;11.40;99.90;;;;;;5028372;28;20535;-77
2022/10/19 08:38:24;;;;;;;4.68;0.80;;;11.50;99.90;;;;;;4993125;28;20401;-76
2022/10/19 08:40:49;;;;;;;7.53;1.40;;;11.50;99.90;;;;;;5027458;28;20493;-77
2022/10/19 08:43:27;;;;;;;3.20;2.03;;;11.50;99.90;;;;;;5026281;28;20045;-77
2022/10/19 08:46:08;;;;;;;1.92;0.95;;;11.50;99.90;;;;;;5027891;28;20046;-79
2022/10/19 08:48:38;;;;;;;5.18;1.52;;;11.60;99.90;;;;;;5027753;28;20045;-77
2022/10/19 08:51:05;;;;;;;3.63;1.67;;;11.60;99.90;;;;;;5026574;28;20076;-79
2022/10/19 08:53:53;;;;;;;1.30;1.23;;;11.60;99.90;;;;;;5009814;28;20160;-77
2022/10/19 08:56:24;;;;;;;3.65;1.63;;;11.70;99.90;;;;;;5026970;28;20163;-77
2022/10/19 08:58:55;;;;;;;4.80;1.35;;;11.60;99.90;;;;;;5008784;28;20058;-77
2022/10/19 09:01:39;;;;;;;3.43;1.03;;;11.70;99.90;;;;;;5027102;28;20061;-78
2022/10/19 09:04:18;;;;;;;2.80;1.60;;;11.70;99.90;;;;;;5008957;28;20514;-77
2022/10/19 09:07:22;;;;;;;5.75;1.58;;;11.80;99.90;;;;;;5009576;28;20058;-78
2022/10/19 09:09:56;;;;;;;5.97;2.25;;;11.70;99.90;;;;;;4988515;28;20500;-78
2022/10/19 09:12:48;;;;;;;2.78;1.30;;;11.80;99.90;;;;;;5025801;28;20068;-77
2022/10/19 09:15:18;;;;;;;7.13;2.13;;;11.80;99.90;;;;;;5026900;28;20076;-77
2022/10/19 09:17:43;;;;;;;2.22;1.23;;;11.80;99.90;;;;;;5026979;28;20038;-77
2022/10/19 09:20:19;;;;;;;1.98;1.13;;;11.80;99.90;;;;;;5008925;28;20037;-77
2022/10/19 09:22:45;;;;;;;2.33;1.30;;;11.80;99.90;;;;;;5027020;28;20041;-78
2022/10/19 09:25:17;;;;;;;4.35;1.48;;;11.80;99.90;;;;;;5008553;28;20053;-77
2022/10/19 09:27:47;;;;;;;6.72;1.75;;;11.80;99.90;;;;;;5025646;28;20512;-78
2022/10/19 09:30:21;;;;;;;3.22;1.88;;;11.90;99.90;;;;;;5026640;28;20049;-76
2022/10/19 09:32:50;;;;;;;1.05;0.70;;;12.00;99.90;;;;;;5026491;28;20037;-78
2022/10/19 09:35:33;;;;;;;3.45;1.48;;;11.90;99.90;;;;;;5026459;28;20443;-77
2022/10/19 09:37:59;;;;;;;3.33;1.80;;;11.90;99.90;;;;;;5009216;28;20044;-77
2022/10/19 09:40:27;;;;;;;5.10;1.27;;;11.90;99.90;;;;;;5026707;28;20045;-79
2022/10/19 09:42:57;;;;;;;8.73;1.35;;;12.00;99.90;;;;;;5007918;28;20049;-77
2022/10/19 09:45:44;;;;;;;3.63;1.55;;;12.00;99.90;;;;;;5025993;28;20049;-78
2022/10/19 09:48:26;;;;;;;1.58;1.13;;;12.00;99.90;;;;;;5026600;28;20042;-76
2022/10/19 09:50:58;;;;;;;3.50;1.33;;;12.00;99.90;;;;;;5026118;28;20141;-78
2022/10/19 09:53:25;;;;;;;3.75;1.58;;;12.10;99.90;;;;;;5025837;28;20045;-77
2022/10/19 09:56:02;;;;;;;6.45;1.55;;;12.10;99.90;;;;;;5008776;28;20045;-77
2022/10/19 09:58:29;;;;;;;2.42;1.80;;;12.10;99.90;;;;;;5025905;28;20037;-77
2022/10/19 10:00:56;;;;;;;4.22;1.42;;;12.20;99.90;;;;;;5026172;28;20577;-77
2022/10/19 10:03:34;;;;;;;2.45;1.10;;;12.20;99.90;;;;;;5025724;28;20041;-77
2022/10/19 10:06:15;;;;;;;3.30;1.13;;;12.20;99.90;;;;;;5025745;28;20045;-80
2022/10/19 10:08:51;;;;;;;5.93;1.52;;;12.20;99.90;;;;;;5008176;28;20053;-77
2022/10/19 10:11:29;;;;;;;5.82;1.48;;;12.20;99.90;;;;;;5007962;28;20484;-76
2022/10/19 10:13:59;;;;;;;2.13;1.13;;;12.20;99.90;;;;;;5008344;28;20115;-76
2022/10/19 10:16:29;;;;;;;4.10;2.15;;;12.30;99.90;;;;;;5008413;28;20038;-79
2022/10/19 10:18:57;;;;;;;1.55;1.17;;;12.30;99.90;;;;;;5008371;28;20133;-77
2022/10/19 10:21:45;;;;;;;2.70;1.42;;;12.30;99.90;;;;;;5025912;28;20400;-78
2022/10/19 10:24:10;;;;;;;5.25;1.77;;;12.30;99.90;;;;;;5007470;28;20047;-77
2022/10/19 10:26:45;;;;;;;2.50;0.80;;;12.30;99.90;;;;;;5024613;28;20057;-77
2022/10/19 10:29:28;;;;;;;3.53;1.42;;;12.40;99.90;;;;;;5007625;28;20128;-77
2022/10/19 10:31:57;;;;;;;1.30;1.10;;;12.40;99.90;;;;;;5025828;28;20081;-77
2022/10/19 10:34:28;;;;;;;2.63;1.05;;;12.40;99.90;;;;;;5025419;28;20041;-76
2022/10/19 10:36:55;;;;;;;4.82;1.90;;;12.40;99.90;;;;;;5025617;28;20423;-78
2022/10/19 10:39:23;;;;;;;5.25;2.25;;;12.40;99.90;;;;;;5007534;28;20095;-76
2022/10/19 10:41:49;;;;;;;4.85;1.45;;;12.40;99.90;;;;;;5024800;28;20124;-76
2022/10/19 10:44:22;;;;;;;2.22;1.40;;;12.50;99.90;;;;;;5024866;28;20590;-77
2022/10/19 10:46:58;;;;;;;9.77;1.25;;;12.50;99.90;;;;;;5025711;28;20041;-78
2022/10/19 10:49:31;;;;;;;9.38;2.15;;;12.50;99.90;;;;;;5024634;28;20681;-78
2022/10/19 10:52:02;;;;;;;3.20;1.35;;;12.50;99.90;;;;;;5004491;28;20077;-77
2022/10/19 10:54:30;;;;;;;4.82;1.63;;;12.50;99.90;;;;;;4988337;28;20492;-77
2022/10/19 10:57:02;;;;;;;1.98;1.70;;;12.50;99.90;;;;;;5004966;28;20038;-79
2022/10/19 10:59:49;;;;;;;10.52;1.85;;;12.60;99.90;;;;;;5005886;28;20038;-77
2022/10/19 11:02:29;;;;;;;8.25;1.58;;;12.60;99.90;;;;;;5005102;28;20042;-79
2022/10/19 11:05:03;;;;;;;2.28;1.27;;;12.60;99.90;;;;;;5006185;28;20482;-78
2022/10/19 11:07:32;;;;;;;3.08;1.35;;;12.70;99.90;;;;;;5005828;28;20034;-78
2022/10/19 11:10:01;;;;;;;3.80;1.70;;;12.60;99.90;;;;;;5006217;28;20053;-77
2022/10/19 11:12:46;;;;;;;3.70;1.38;;;12.70;99.90;;;;;;5003550;28;20042;-78
2022/10/19 11:16:01;;;;;;;11.63;1.77;;;12.70;99.90;;;;;;5004248;28;20400;-77
2022/10/19 11:18:39;;;;;;;5.35;1.40;;;12.70;99.90;;;;;;4999489;28;20050;-77
2022/10/19 11:21:14;;;;;;;8.10;2.38;;;12.70;99.90;;;;;;5005371;28;20050;-77
2022/10/19 11:24:00;;;;;;;2.13;1.25;;;12.70;99.90;;;;;;5005662;28;20147;-77
2022/10/19 11:27:03;;;;;;;4.18;2.28;;;12.70;99.90;;;;;;5004997;28;20054;-79
2022/10/19 11:30:00;;;;;;;1.38;1.05;;;12.70;99.90;;;;;;5004336;28;20054;-78
2022/10/19 11:32:51;;;;;;;4.32;2.03;;;12.70;99.90;;;;;;5005806;28;20048;-77
2022/10/19 11:35:42;;;;;;;14.30;2.15;;;12.80;99.90;;;;;;5009242;28;20064;-76
2022/10/19 11:38:23;;;;;;;8.07;1.57;;;12.80;99.90;;;;;;5007967;28;20084;-77
2022/10/19 11:41:05;;;;;;;4.55;1.35;;;12.80;99.90;;;;;;5009154;28;20315;-77
2022/10/19 11:43:37;;;;;;;2.85;1.17;;;12.80;99.90;;;;;;5008515;28;20069;-78
2022/10/19 11:46:22;;;;;;;7.35;2.05;;;12.80;99.90;;;;;;5008828;28;20052;-77
2022/10/19 11:49:11;;;;;;;1.85;1.25;;;12.80;99.90;;;;;;4993494;28;20540;-79
2022/10/19 11:51:45;;;;;;;1.15;0.82;;;12.90;99.90;;;;;;5007378;28;20081;-79
2022/10/19 11:54:28;;;;;;;4.45;1.63;;;12.90;99.90;;;;;;5008685;28;20046;-76
2022/10/19 11:56:57;;;;;;;8.65;1.55;;;13.00;99.90;;;;;;5008294;28;20046;-77
2022/10/19 11:59:35;;;;;;;4.25;1.52;;;13.10;99.90;;;;;;5008797;28;20038;-77
2022/10/19 12:02:34;;;;;;;1.20;0.88;;;13.00;99.90;;;;;;5008247;28;20046;-79
2022/10/19 12:05:09;;;;;;;5.90;1.23;;;13.00;99.90;;;;;;5008287;28;20042;-79
2022/10/19 12:07:35;;;;;;;2.83;1.05;;;13.00;99.90;;;;;;5007546;28;20042;-78
2022/10/19 12:10:24;;;;;;;2.17;1.85;;;12.90;99.90;;;;;;5008120;28;20386;-77
2022/10/19 12:12:54;;;;;;;3.65;1.63;;;12.90;99.90;;;;;;5007862;28;20045;-77
2022/10/19 12:15:34;;;;;;;3.33;1.17;;;12.90;99.90;;;;;;5008399;28;20054;-78
2022/10/19 12:18:10;;;;;;;3.78;1.27;;;13.00;99.90;;;;;;5007286;28;20049;-79
2022/10/19 12:20:58;;;;;;;4.18;1.63;;;12.90;99.90;;;;;;5008853;28;20034;-77
2022/10/19 12:23:40;;;;;;;4.30;1.85;;;13.00;99.90;;;;;;5008123;28;20516;-78
2022/10/19 12:26:13;;;;;;;4.82;1.67;;;13.00;99.90;;;;;;5005496;28;20046;-77
2022/10/19 12:28:43;;;;;;;2.15;1.10;;;12.90;99.90;;;;;;5008346;28;20053;-77
2022/10/19 12:31:10;;;;;;;4.63;1.20;;;12.90;99.90;;;;;;5007813;28;20060;-77
2022/10/19 12:33:35;;;;;;;9.07;1.65;;;12.90;99.90;;;;;;5008136;28;20092;-77
2022/10/19 12:36:26;;;;;;;2.88;1.33;;;12.90;99.90;;;;;;5007707;28;20496;-78
2022/10/19 12:39:22;;;;;;;3.55;1.92;;;12.80;99.90;;;;;;5008371;28;20125;-77
2022/10/19 12:42:10;;;;;;;2.42;1.35;;;12.80;99.90;;;;;;5007084;28;20125;-76
2022/10/19 12:45:00;;;;;;;2.75;1.17;;;12.80;99.90;;;;;;5007557;28;20045;-76
2022/10/19 12:47:26;;;;;;;3.50;1.88;;;12.70;99.90;;;;;;5006918;28;20053;-76
2022/10/19 12:49:55;;;;;;;3.35;1.92;;;12.70;99.90;;;;;;5006816;28;20049;-77
2022/10/19 12:52:35;;;;;;;8.75;2.00;;;12.70;99.90;;;;;;4989731;28;20061;-76
2022/10/19 12:55:24;;;;;;;3.33;1.38;;;12.70;99.90;;;;;;5007424;28;20045;-79
2022/10/19 12:58:17;;;;;;;3.45;1.58;;;12.70;99.90;;;;;;5005828;28;20129;-76
2022/10/19 13:00:57;;;;;;;2.38;0.95;;;12.70;99.90;;;;;;4990490;28;20061;-77
2022/10/19 13:03:33;;;;;;;2.63;1.30;;;12.70;99.90;;;;;;5006063;28;20049;-77
2022/10/19 13:06:07;;;;;;;5.20;1.35;;;12.70;99.90;;;;;;5007691;28;20037;-77